sensor_id;sensor_type;location;lat;lon;timestamp;temperature;humidity
831;DHT22;397;50.564;7.272;2023-02-28T00:01:33;0.70;99.90
831;DHT22;397;50.564;7.272;2023-02-28T00:04:01;0.70;99.90
831;DHT22;397;50.564;7.272;2023-02-28T00:06:29;0.70;99.90
831;DHT22;397;50.564;7.272;2023-02-28T00:08:57;0.70;99.90
831;DHT22;397;50.564;7.272;2023-02-28T00:11:24;0.50;99.90
831;DHT22;397;50.564;7.272;2023-02-28T00:13:52;0.60;99.90
831;DHT22;397;50.564;7.272;2023-02-28T00:16:21;0.60;99.90
831;DHT22;397;50.564;7.272;2023-02-28T00:18:49;0.60;99.90
831;DHT22;397;50.564;7.272;2023-02-28T00:21:18;0.60;99.90
831;DHT22;397;50.564;7.272;2023-02-28T00:23:46;0.60;99.90
831;DHT22;397;50.564;7.272;2023-02-28T00:26:14;0.50;99.90
831;DHT22;397;50.564;7.272;2023-02-28T00:28:41;0.70;99.90
831;DHT22;397;50.564;7.272;2023-02-28T00:31:09;0.80;99.90
831;DHT22;397;50.564;7.272;2023-02-28T00:33:36;0.80;99.90
831;DHT22;397;50.564;7.272;2023-02-28T00:36:09;0.90;99.90
831;DHT22;397;50.564;7.272;2023-02-28T00:38:38;0.90;99.90
831;DHT22;397;50.564;7.272;2023-02-28T00:41:07;0.80;99.90
831;DHT22;397;50.564;7.272;2023-02-28T00:43:36;0.80;99.90
831;DHT22;397;50.564;7.272;2023-02-28T00:46:03;0.80;99.90
831;DHT22;397;50.564;7.272;2023-02-28T00:48:31;0.80;99.90
831;DHT22;397;50.564;7.272;2023-02-28T00:50:59;0.90;99.90
831;DHT22;397;50.564;7.272;2023-02-28T00:53:27;1.00;99.90
831;DHT22;397;50.564;7.272;2023-02-28T00:55:55;0.90;99.90
831;DHT22;397;50.564;7.272;2023-02-28T00:58:22;1.20;99.90
831;DHT22;397;50.564;7.272;2023-02-28T01:00:51;1.10;99.90
831;DHT22;397;50.564;7.272;2023-02-28T01:03:20;1.00;99.90
831;DHT22;397;50.564;7.272;2023-02-28T01:05:49;1.10;99.90
831;DHT22;397;50.564;7.272;2023-02-28T01:08:16;1.20;99.90
831;DHT22;397;50.564;7.272;2023-02-28T01:10:44;1.20;99.90
831;DHT22;397;50.564;7.272;2023-02-28T01:13:12;1.20;99.90
831;DHT22;397;50.564;7.272;2023-02-28T01:15:49;1.10;99.90
831;DHT22;397;50.564;7.272;2023-02-28T01:18:13;1.00;99.90
831;DHT22;397;50.564;7.272;2023-02-28T01:20:41;1.10;99.90
831;DHT22;397;50.564;7.272;2023-02-28T01:23:08;1.00;99.90
831;DHT22;397;50.564;7.272;2023-02-28T01:25:36;1.00;99.90
831;DHT22;397;50.564;7.272;2023-02-28T01:28:04;0.90;99.90
831;DHT22;397;50.564;7.272;2023-02-28T01:30:33;1.00;99.90
831;DHT22;397;50.564;7.272;2023-02-28T01:33:00;0.90;99.90
831;DHT22;397;50.564;7.272;2023-02-28T01:35:27;1.00;99.90
831;DHT22;397;50.564;7.272;2023-02-28T01:37:55;0.80;99.90
831;DHT22;397;50.564;7.272;2023-02-28T01:40:22;1.00;99.90
831;DHT22;397;50.564;7.272;2023-02-28T01:42:50;0.90;99.90
831;DHT22;397;50.564;7.272;2023-02-28T01:45:31;0.90;99.90
831;DHT22;397;50.564;7.272;2023-02-28T01:48:06;0.80;99.90
831;DHT22;397;50.564;7.272;2023-02-28T01:50:33;0.80;99.90
831;DHT22;397;50.564;7.272;2023-02-28T01:53:03;0.70;99.90
831;DHT22;397;50.564;7.272;2023-02-28T01:55:32;0.80;99.90
831;DHT22;397;50.564;7.272;2023-02-28T01:58:02;0.70;99.90
831;DHT22;397;50.564;7.272;2023-02-28T02:00:31;0.60;99.90
831;DHT22;397;50.564;7.272;2023-02-28T02:03:05;0.50;99.90
831;DHT22;397;50.564;7.272;2023-02-28T02:05:31;0.50;99.90
831;DHT22;397;50.564;7.272;2023-02-28T02:08:10;0.50;99.90
831;DHT22;397;50.564;7.272;2023-02-28T02:10:43;0.60;99.90
831;DHT22;397;50.564;7.272;2023-02-28T02:13:21;0.60;99.90
831;DHT22;397;50.564;7.272;2023-02-28T02:18:50;0.60;99.90
831;DHT22;397;50.564;7.272;2023-02-28T02:24:42;0.50;99.90
831;DHT22;397;50.564;7.272;2023-02-28T02:33:04;0.50;99.90
831;DHT22;397;50.564;7.272;2023-02-28T02:36:26;0.40;99.90
831;DHT22;397;50.564;7.272;2023-02-28T02:41:10;0.30;99.90
831;DHT22;397;50.564;7.272;2023-02-28T02:43:40;0.40;99.90
831;DHT22;397;50.564;7.272;2023-02-28T02:46:16;0.30;99.90
831;DHT22;397;50.564;7.272;2023-02-28T02:48:42;0.20;99.90
831;DHT22;397;50.564;7.272;2023-02-28T02:51:16;0.40;99.90
831;DHT22;397;50.564;7.272;2023-02-28T02:53:48;0.30;99.90
831;DHT22;397;50.564;7.272;2023-02-28T02:56:18;0.30;99.90
831;DHT22;397;50.564;7.272;2023-02-28T02:58:47;0.30;99.90
831;DHT22;397;50.564;7.272;2023-02-28T03:01:18;0.30;99.90
831;DHT22;397;50.564;7.272;2023-02-28T03:03:51;0.30;99.90
831;DHT22;397;50.564;7.272;2023-02-28T03:06:19;0.30;99.90
831;DHT22;397;50.564;7.272;2023-02-28T03:08:46;0.30;99.90
831;DHT22;397;50.564;7.272;2023-02-28T03:11:14;0.40;99.90
831;DHT22;397;50.564;7.272;2023-02-28T03:19:38;0.10;99.90
831;DHT22;397;50.564;7.272;2023-02-28T03:28:11;0.20;99.90
831;DHT22;397;50.564;7.272;2023-02-28T03:30:49;0.30;99.90
831;DHT22;397;50.564;7.272;2023-02-28T03:33:24;0.30;99.90
831;DHT22;397;50.564;7.272;2023-02-28T03:35:55;0.30;99.90
831;DHT22;397;50.564;7.272;2023-02-28T03:41:00;0.30;99.90
831;DHT22;397;50.564;7.272;2023-02-28T03:43:31;0.20;99.90
831;DHT22;397;50.564;7.272;2023-02-28T03:45:58;0.20;99.90
831;DHT22;397;50.564;7.272;2023-02-28T03:48:36;0.20;99.90
831;DHT22;397;50.564;7.272;2023-02-28T03:50:59;0.10;99.90
831;DHT22;397;50.564;7.272;2023-02-28T03:53:37;0.10;99.90
831;DHT22;397;50.564;7.272;2023-02-28T03:56:15;0.10;99.90
831;DHT22;397;50.564;7.272;2023-02-28T04:01:28;0.10;99.90
831;DHT22;397;50.564;7.272;2023-02-28T04:03:56;0.00;99.90
831;DHT22;397;50.564;7.272;2023-02-28T04:06:24;0.00;99.90
831;DHT22;397;50.564;7.272;2023-02-28T04:08:51;0.00;99.90
831;DHT22;397;50.564;7.272;2023-02-28T04:11:40;0.00;99.90
831;DHT22;397;50.564;7.272;2023-02-28T04:13:53;0.00;99.90
831;DHT22;397;50.564;7.272;2023-02-28T04:16:20;0.10;99.90
831;DHT22;397;50.564;7.272;2023-02-28T04:18:48;0.00;99.90
831;DHT22;397;50.564;7.272;2023-02-28T04:21:15;0.00;99.90
831;DHT22;397;50.564;7.272;2023-02-28T04:23:44;-0.10;99.90
831;DHT22;397;50.564;7.272;2023-02-28T04:26:12;-0.10;99.90
831;DHT22;397;50.564;7.272;2023-02-28T04:28:40;-0.10;99.90
831;DHT22;397;50.564;7.272;2023-02-28T04:31:07;-0.40;99.90
831;DHT22;397;50.564;7.272;2023-02-28T04:33:34;-0.30;99.90
831;DHT22;397;50.564;7.272;2023-02-28T04:36:07;-0.30;99.90
831;DHT22;397;50.564;7.272;2023-02-28T04:38:37;-0.30;99.90
831;DHT22;397;50.564;7.272;2023-02-28T04:41:05;-0.40;99.90
831;DHT22;397;50.564;7.272;2023-02-28T04:43:33;-0.40;99.90
831;DHT22;397;50.564;7.272;2023-02-28T04:46:02;-0.50;99.90
831;DHT22;397;50.564;7.272;2023-02-28T04:48:32;-0.40;99.90
831;DHT22;397;50.564;7.272;2023-02-28T04:51:04;-0.40;99.90
831;DHT22;397;50.564;7.272;2023-02-28T04:53:33;-0.40;99.90
831;DHT22;397;50.564;7.272;2023-02-28T04:56:01;-0.40;99.90
831;DHT22;397;50.564;7.272;2023-02-28T04:58:29;-0.40;99.90
831;DHT22;397;50.564;7.272;2023-02-28T05:01:15;-0.20;99.90
831;DHT22;397;50.564;7.272;2023-02-28T05:03:38;-0.20;99.90
831;DHT22;397;50.564;7.272;2023-02-28T05:06:08;-0.30;99.90
831;DHT22;397;50.564;7.272;2023-02-28T05:08:35;-0.20;99.90
831;DHT22;397;50.564;7.272;2023-02-28T05:11:05;-0.20;99.90
831;DHT22;397;50.564;7.272;2023-02-28T05:13:33;-0.20;99.90
831;DHT22;397;50.564;7.272;2023-02-28T05:16:02;-0.20;99.90
831;DHT22;397;50.564;7.272;2023-02-28T05:18:29;-0.20;99.90
831;DHT22;397;50.564;7.272;2023-02-28T05:20:57;-0.20;99.90
831;DHT22;397;50.564;7.272;2023-02-28T05:23:24;-0.20;99.90
831;DHT22;397;50.564;7.272;2023-02-28T05:25:52;-0.30;99.90
831;DHT22;397;50.564;7.272;2023-02-28T05:28:20;-0.50;99.90
831;DHT22;397;50.564;7.272;2023-02-28T05:30:48;-0.40;99.90
831;DHT22;397;50.564;7.272;2023-02-28T05:33:16;-0.60;99.90
831;DHT22;397;50.564;7.272;2023-02-28T05:35:43;-0.60;99.90
831;DHT22;397;50.564;7.272;2023-02-28T05:38:11;-0.50;99.90
831;DHT22;397;50.564;7.272;2023-02-28T05:40:39;-0.60;99.90
831;DHT22;397;50.564;7.272;2023-02-28T05:43:09;-0.70;99.90
831;DHT22;397;50.564;7.272;2023-02-28T05:45:38;-0.70;99.90
831;DHT22;397;50.564;7.272;2023-02-28T05:48:06;-0.60;99.90
831;DHT22;397;50.564;7.272;2023-02-28T05:50:33;-0.70;99.90
831;DHT22;397;50.564;7.272;2023-02-28T05:53:01;-0.70;99.90
831;DHT22;397;50.564;7.272;2023-02-28T05:55:29;-0.80;99.90
831;DHT22;397;50.564;7.272;2023-02-28T05:57:56;-0.60;99.90
831;DHT22;397;50.564;7.272;2023-02-28T06:00:24;-0.70;99.90
831;DHT22;397;50.564;7.272;2023-02-28T06:02:51;-0.60;99.90
831;DHT22;397;50.564;7.272;2023-02-28T06:05:21;-0.60;99.90
831;DHT22;397;50.564;7.272;2023-02-28T06:07:48;-0.50;99.90
831;DHT22;397;50.564;7.272;2023-02-28T06:10:16;-0.60;99.90
831;DHT22;397;50.564;7.272;2023-02-28T06:12:43;-0.70;99.90
831;DHT22;397;50.564;7.272;2023-02-28T06:15:15;-0.80;99.90
831;DHT22;397;50.564;7.272;2023-02-28T06:17:44;-0.70;99.90
831;DHT22;397;50.564;7.272;2023-02-28T06:20:12;-0.70;99.90
831;DHT22;397;50.564;7.272;2023-02-28T06:22:40;-0.80;99.90
831;DHT22;397;50.564;7.272;2023-02-28T06:25:09;-0.80;99.90
831;DHT22;397;50.564;7.272;2023-02-28T06:27:37;-0.80;99.90
831;DHT22;397;50.564;7.272;2023-02-28T06:30:05;-0.90;99.90
831;DHT22;397;50.564;7.272;2023-02-28T06:32:32;-0.90;99.90
831;DHT22;397;50.564;7.272;2023-02-28T06:35:00;-0.80;99.90
831;DHT22;397;50.564;7.272;2023-02-28T06:37:27;-0.90;99.90
831;DHT22;397;50.564;7.272;2023-02-28T06:39:55;-0.90;99.90
831;DHT22;397;50.564;7.272;2023-02-28T06:42:23;-0.80;99.90
831;DHT22;397;50.564;7.272;2023-02-28T06:44:55;-0.80;99.90
831;DHT22;397;50.564;7.272;2023-02-28T06:47:23;-0.90;99.90
831;DHT22;397;50.564;7.272;2023-02-28T06:49:51;-0.80;99.90
831;DHT22;397;50.564;7.272;2023-02-28T06:52:18;-0.70;99.90
831;DHT22;397;50.564;7.272;2023-02-28T06:54:46;-0.70;99.90
831;DHT22;397;50.564;7.272;2023-02-28T06:57:13;-0.70;99.90
831;DHT22;397;50.564;7.272;2023-02-28T06:59:41;-0.80;99.90
831;DHT22;397;50.564;7.272;2023-02-28T07:02:08;-0.60;99.90
831;DHT22;397;50.564;7.272;2023-02-28T07:04:36;-0.40;99.90
831;DHT22;397;50.564;7.272;2023-02-28T07:07:03;-0.20;99.90
831;DHT22;397;50.564;7.272;2023-02-28T07:09:31;0.10;99.90
831;DHT22;397;50.564;7.272;2023-02-28T07:11:58;0.20;99.90
831;DHT22;397;50.564;7.272;2023-02-28T07:14:26;0.30;99.90
831;DHT22;397;50.564;7.272;2023-02-28T07:16:54;0.50;99.90
831;DHT22;397;50.564;7.272;2023-02-28T07:19:21;0.50;99.90
831;DHT22;397;50.564;7.272;2023-02-28T07:21:49;0.40;99.90
831;DHT22;397;50.564;7.272;2023-02-28T07:24:16;0.70;99.90
831;DHT22;397;50.564;7.272;2023-02-28T07:26:44;0.70;99.90
831;DHT22;397;50.564;7.272;2023-02-28T07:29:12;0.70;99.90
831;DHT22;397;50.564;7.272;2023-02-28T07:31:39;0.70;99.90
831;DHT22;397;50.564;7.272;2023-02-28T07:34:07;0.80;99.90
831;DHT22;397;50.564;7.272;2023-02-28T07:36:34;1.10;99.90
831;DHT22;397;50.564;7.272;2023-02-28T07:39:02;1.20;99.90
831;DHT22;397;50.564;7.272;2023-02-28T07:41:30;1.00;99.90
831;DHT22;397;50.564;7.272;2023-02-28T07:44:00;1.00;99.90
831;DHT22;397;50.564;7.272;2023-02-28T07:46:27;1.00;99.90
831;DHT22;397;50.564;7.272;2023-02-28T07:48:57;1.40;99.90
831;DHT22;397;50.564;7.272;2023-02-28T07:51:25;1.20;99.90
831;DHT22;397;50.564;7.272;2023-02-28T07:53:53;1.10;99.90
831;DHT22;397;50.564;7.272;2023-02-28T07:56:20;1.30;99.90
831;DHT22;397;50.564;7.272;2023-02-28T07:58:48;1.20;99.90
831;DHT22;397;50.564;7.272;2023-02-28T08:01:15;1.60;99.90
831;DHT22;397;50.564;7.272;2023-02-28T08:03:43;1.70;99.90
831;DHT22;397;50.564;7.272;2023-02-28T08:06:17;1.60;99.90
831;DHT22;397;50.564;7.272;2023-02-28T08:08:44;1.80;99.90
831;DHT22;397;50.564;7.272;2023-02-28T08:11:12;1.80;99.90
831;DHT22;397;50.564;7.272;2023-02-28T08:13:39;2.00;99.90
831;DHT22;397;50.564;7.272;2023-02-28T08:16:08;2.00;99.90
831;DHT22;397;50.564;7.272;2023-02-28T08:18:36;1.80;99.90
831;DHT22;397;50.564;7.272;2023-02-28T08:21:08;1.70;99.90
831;DHT22;397;50.564;7.272;2023-02-28T08:23:36;2.00;99.90
831;DHT22;397;50.564;7.272;2023-02-28T08:26:04;2.00;99.90
831;DHT22;397;50.564;7.272;2023-02-28T08:28:31;2.00;99.90
831;DHT22;397;50.564;7.272;2023-02-28T08:30:59;2.00;99.90
831;DHT22;397;50.564;7.272;2023-02-28T08:33:27;1.80;99.90
831;DHT22;397;50.564;7.272;2023-02-28T08:35:56;1.90;99.90
831;DHT22;397;50.564;7.272;2023-02-28T08:38:24;1.80;99.90
831;DHT22;397;50.564;7.272;2023-02-28T08:41:00;1.90;99.90
831;DHT22;397;50.564;7.272;2023-02-28T08:43:28;2.00;99.90
831;DHT22;397;50.564;7.272;2023-02-28T08:45:56;2.10;99.90
831;DHT22;397;50.564;7.272;2023-02-28T08:48:30;2.30;99.90
831;DHT22;397;50.564;7.272;2023-02-28T08:50:57;2.40;99.90
831;DHT22;397;50.564;7.272;2023-02-28T08:53:25;2.00;99.90
831;DHT22;397;50.564;7.272;2023-02-28T08:56:15;1.90;99.90
831;DHT22;397;50.564;7.272;2023-02-28T08:58:39;2.00;99.90
831;DHT22;397;50.564;7.272;2023-02-28T09:01:25;2.30;99.90
831;DHT22;397;50.564;7.272;2023-02-28T09:03:50;2.60;99.90
831;DHT22;397;50.564;7.272;2023-02-28T09:06:19;2.50;99.90
831;DHT22;397;50.564;7.272;2023-02-28T09:08:48;2.50;99.90
831;DHT22;397;50.564;7.272;2023-02-28T09:11:16;2.20;99.90
831;DHT22;397;50.564;7.272;2023-02-28T09:13:46;2.10;99.90
831;DHT22;397;50.564;7.272;2023-02-28T09:16:15;2.20;99.90
831;DHT22;397;50.564;7.272;2023-02-28T09:18:43;2.50;99.90
831;DHT22;397;50.564;7.272;2023-02-28T09:21:13;2.60;99.90
831;DHT22;397;50.564;7.272;2023-02-28T09:23:42;2.70;99.90
831;DHT22;397;50.564;7.272;2023-02-28T09:26:15;2.50;99.90
831;DHT22;397;50.564;7.272;2023-02-28T09:28:43;2.30;99.90
831;DHT22;397;50.564;7.272;2023-02-28T09:31:17;2.40;99.90
831;DHT22;397;50.564;7.272;2023-02-28T09:33:48;2.70;99.90
831;DHT22;397;50.564;7.272;2023-02-28T09:36:16;2.80;99.90
831;DHT22;397;50.564;7.272;2023-02-28T09:38:43;3.00;99.90
831;DHT22;397;50.564;7.272;2023-02-28T09:41:19;3.00;99.90
831;DHT22;397;50.564;7.272;2023-02-28T09:43:55;3.10;99.90
831;DHT22;397;50.564;7.272;2023-02-28T09:46:34;3.20;99.90
831;DHT22;397;50.564;7.272;2023-02-28T09:49:02;2.80;99.90
831;DHT22;397;50.564;7.272;2023-02-28T09:52:34;2.90;99.90
831;DHT22;397;50.564;7.272;2023-02-28T09:54:14;3.10;99.90
831;DHT22;397;50.564;7.272;2023-02-28T09:56:47;3.20;99.90
831;DHT22;397;50.564;7.272;2023-02-28T09:59:25;3.50;99.90
831;DHT22;397;50.564;7.272;2023-02-28T10:04:58;3.60;97.10
831;DHT22;397;50.564;7.272;2023-02-28T10:11:15;3.60;96.10
831;DHT22;397;50.564;7.272;2023-02-28T10:12:52;3.50;95.90
831;DHT22;397;50.564;7.272;2023-02-28T10:15:23;3.70;95.00
831;DHT22;397;50.564;7.272;2023-02-28T10:17:54;3.70;94.80
831;DHT22;397;50.564;7.272;2023-02-28T10:20:24;3.70;93.40
831;DHT22;397;50.564;7.272;2023-02-28T10:23:17;3.60;94.40
831;DHT22;397;50.564;7.272;2023-02-28T10:26:00;3.70;93.50
831;DHT22;397;50.564;7.272;2023-02-28T10:28:26;3.90;88.10
831;DHT22;397;50.564;7.272;2023-02-28T10:30:54;4.20;88.70
831;DHT22;397;50.564;7.272;2023-02-28T10:33:24;4.40;82.70
831;DHT22;397;50.564;7.272;2023-02-28T10:35:53;4.40;84.10
831;DHT22;397;50.564;7.272;2023-02-28T10:38:26;4.60;81.00
831;DHT22;397;50.564;7.272;2023-02-28T10:41:11;4.60;79.30
831;DHT22;397;50.564;7.272;2023-02-28T10:43:41;4.10;76.60
831;DHT22;397;50.564;7.272;2023-02-28T10:46:12;4.30;79.10
831;DHT22;397;50.564;7.272;2023-02-28T10:48:47;4.30;74.60
831;DHT22;397;50.564;7.272;2023-02-28T10:51:18;4.30;74.90
831;DHT22;397;50.564;7.272;2023-02-28T10:53:55;4.40;74.90
831;DHT22;397;50.564;7.272;2023-02-28T10:56:22;4.10;72.80
831;DHT22;397;50.564;7.272;2023-02-28T11:01:45;4.60;70.90
831;DHT22;397;50.564;7.272;2023-02-28T11:04:19;4.50;73.90
831;DHT22;397;50.564;7.272;2023-02-28T11:07:06;4.60;71.90
831;DHT22;397;50.564;7.272;2023-02-28T11:09:32;4.60;69.70
831;DHT22;397;50.564;7.272;2023-02-28T11:12:03;4.70;68.20
831;DHT22;397;50.564;7.272;2023-02-28T11:14:35;4.60;66.60
831;DHT22;397;50.564;7.272;2023-02-28T11:17:20;4.70;67.10
831;DHT22;397;50.564;7.272;2023-02-28T11:19:53;4.90;66.10
831;DHT22;397;50.564;7.272;2023-02-28T11:22:26;5.00;66.60
831;DHT22;397;50.564;7.272;2023-02-28T11:25:02;4.60;64.20
831;DHT22;397;50.564;7.272;2023-02-28T11:30:01;4.70;67.90
831;DHT22;397;50.564;7.272;2023-02-28T11:32:31;4.70;65.20
831;DHT22;397;50.564;7.272;2023-02-28T11:35:14;4.80;65.50
831;DHT22;397;50.564;7.272;2023-02-28T11:37:33;4.80;66.40
831;DHT22;397;50.564;7.272;2023-02-28T11:40:00;4.80;66.50
831;DHT22;397;50.564;7.272;2023-02-28T11:56:33;4.60;64.20
831;DHT22;397;50.564;7.272;2023-02-28T12:02:29;4.80;63.50
831;DHT22;397;50.564;7.272;2023-02-28T12:05:16;5.00;68.60
831;DHT22;397;50.564;7.272;2023-02-28T12:10:41;5.00;62.20
831;DHT22;397;50.564;7.272;2023-02-28T12:13:16;4.90;63.10
831;DHT22;397;50.564;7.272;2023-02-28T12:18:38;5.00;62.80
831;DHT22;397;50.564;7.272;2023-02-28T12:24:12;4.70;62.60
831;DHT22;397;50.564;7.272;2023-02-28T12:26:42;4.70;62.50
831;DHT22;397;50.564;7.272;2023-02-28T12:29:27;4.80;62.80
831;DHT22;397;50.564;7.272;2023-02-28T12:32:07;4.70;62.70
831;DHT22;397;50.564;7.272;2023-02-28T12:34:41;4.60;63.30
831;DHT22;397;50.564;7.272;2023-02-28T12:37:19;4.90;62.50
831;DHT22;397;50.564;7.272;2023-02-28T12:39:48;4.90;61.80
831;DHT22;397;50.564;7.272;2023-02-28T12:42:17;4.70;63.00
831;DHT22;397;50.564;7.272;2023-02-28T12:45:10;4.80;63.90
831;DHT22;397;50.564;7.272;2023-02-28T12:47:33;4.70;62.20
831;DHT22;397;50.564;7.272;2023-02-28T12:50:08;4.90;62.40
831;DHT22;397;50.564;7.272;2023-02-28T12:55:43;4.90;60.80
831;DHT22;397;50.564;7.272;2023-02-28T12:58:33;5.00;62.00
831;DHT22;397;50.564;7.272;2023-02-28T13:01:26;5.10;62.20
831;DHT22;397;50.564;7.272;2023-02-28T13:06:38;5.30;63.80
831;DHT22;397;50.564;7.272;2023-02-28T13:09:08;5.00;61.80
831;DHT22;397;50.564;7.272;2023-02-28T13:11:45;5.10;62.50
831;DHT22;397;50.564;7.272;2023-02-28T13:16:59;5.00;62.20
831;DHT22;397;50.564;7.272;2023-02-28T13:19:30;5.00;61.80
831;DHT22;397;50.564;7.272;2023-02-28T13:24:52;4.90;62.80
831;DHT22;397;50.564;7.272;2023-02-28T13:27:38;5.00;63.10
831;DHT22;397;50.564;7.272;2023-02-28T13:33:32;5.00;63.80
831;DHT22;397;50.564;7.272;2023-02-28T13:38:55;4.90;63.30
831;DHT22;397;50.564;7.272;2023-02-28T13:44:13;4.90;64.60
831;DHT22;397;50.564;7.272;2023-02-28T13:49:27;5.00;63.60
831;DHT22;397;50.564;7.272;2023-02-28T13:58:05;5.00;64.60
831;DHT22;397;50.564;7.272;2023-02-28T14:03:38;5.20;65.30
831;DHT22;397;50.564;7.272;2023-02-28T14:06:29;5.20;64.10
831;DHT22;397;50.564;7.272;2023-02-28T14:11:43;5.30;66.00
831;DHT22;397;50.564;7.272;2023-02-28T14:14:08;5.10;63.50
831;DHT22;397;50.564;7.272;2023-02-28T14:16:44;5.10;64.40
831;DHT22;397;50.564;7.272;2023-02-28T14:19:21;5.20;63.50
831;DHT22;397;50.564;7.272;2023-02-28T14:35:50;5.30;64.90
831;DHT22;397;50.564;7.272;2023-02-28T14:38:20;5.30;63.40
831;DHT22;397;50.564;7.272;2023-02-28T14:40:51;5.40;64.70
831;DHT22;397;50.564;7.272;2023-02-28T14:43:23;5.40;65.30
831;DHT22;397;50.564;7.272;2023-02-28T14:45:59;5.40;64.60
831;DHT22;397;50.564;7.272;2023-02-28T14:48:28;5.40;63.70
831;DHT22;397;50.564;7.272;2023-02-28T14:50:58;5.40;65.70
831;DHT22;397;50.564;7.272;2023-02-28T14:53:35;5.20;64.10
831;DHT22;397;50.564;7.272;2023-02-28T14:55:56;5.30;65.90
831;DHT22;397;50.564;7.272;2023-02-28T14:58:27;5.30;65.00
831;DHT22;397;50.564;7.272;2023-02-28T15:00:57;5.30;64.30
831;DHT22;397;50.564;7.272;2023-02-28T15:03:36;5.40;64.90
831;DHT22;397;50.564;7.272;2023-02-28T15:06:12;5.40;65.00
831;DHT22;397;50.564;7.272;2023-02-28T15:08:35;5.50;64.90
831;DHT22;397;50.564;7.272;2023-02-28T15:11:05;5.40;65.80
831;DHT22;397;50.564;7.272;2023-02-28T15:13:44;5.40;64.60
831;DHT22;397;50.564;7.272;2023-02-28T15:16:19;5.40;64.30
831;DHT22;397;50.564;7.272;2023-02-28T15:21:21;5.30;64.50
831;DHT22;397;50.564;7.272;2023-02-28T15:23:52;5.40;65.30
831;DHT22;397;50.564;7.272;2023-02-28T15:26:23;5.50;66.00
831;DHT22;397;50.564;7.272;2023-02-28T15:28:59;5.50;65.40
831;DHT22;397;50.564;7.272;2023-02-28T15:31:33;5.50;64.80
831;DHT22;397;50.564;7.272;2023-02-28T15:34:06;5.50;65.10
831;DHT22;397;50.564;7.272;2023-02-28T15:36:34;5.50;65.40
831;DHT22;397;50.564;7.272;2023-02-28T15:39:26;5.50;64.80
831;DHT22;397;50.564;7.272;2023-02-28T15:41:37;5.40;64.60
831;DHT22;397;50.564;7.272;2023-02-28T15:44:17;5.40;64.80
831;DHT22;397;50.564;7.272;2023-02-28T15:49:28;5.40;65.80
831;DHT22;397;50.564;7.272;2023-02-28T15:51:58;5.40;65.60
831;DHT22;397;50.564;7.272;2023-02-28T15:54:34;5.40;64.70
831;DHT22;397;50.564;7.272;2023-02-28T15:57:10;5.40;66.60
831;DHT22;397;50.564;7.272;2023-02-28T15:59:36;5.40;65.90
831;DHT22;397;50.564;7.272;2023-02-28T16:02:13;5.40;67.60
831;DHT22;397;50.564;7.272;2023-02-28T16:05:18;5.40;65.90
831;DHT22;397;50.564;7.272;2023-02-28T16:07:32;5.40;66.00
831;DHT22;397;50.564;7.272;2023-02-28T16:10:00;5.30;67.20
831;DHT22;397;50.564;7.272;2023-02-28T16:12:30;5.30;66.00
831;DHT22;397;50.564;7.272;2023-02-28T16:15:01;5.20;67.00
831;DHT22;397;50.564;7.272;2023-02-28T16:17:34;5.20;66.00
831;DHT22;397;50.564;7.272;2023-02-28T16:20:14;5.10;66.00
831;DHT22;397;50.564;7.272;2023-02-28T16:22:42;5.20;67.30
831;DHT22;397;50.564;7.272;2023-02-28T16:25:18;5.30;66.70
831;DHT22;397;50.564;7.272;2023-02-28T16:27:48;5.30;66.90
831;DHT22;397;50.564;7.272;2023-02-28T16:30:27;5.30;66.70
831;DHT22;397;50.564;7.272;2023-02-28T16:32:52;5.40;68.20
831;DHT22;397;50.564;7.272;2023-02-28T16:35:21;5.30;65.90
831;DHT22;397;50.564;7.272;2023-02-28T16:37:51;5.40;67.00
831;DHT22;397;50.564;7.272;2023-02-28T16:40:21;5.30;68.20
831;DHT22;397;50.564;7.272;2023-02-28T16:42:52;5.30;66.50
831;DHT22;397;50.564;7.272;2023-02-28T16:45:25;5.30;66.80
831;DHT22;397;50.564;7.272;2023-02-28T16:47:53;5.30;66.80
831;DHT22;397;50.564;7.272;2023-02-28T16:50:27;5.20;66.20
831;DHT22;397;50.564;7.272;2023-02-28T16:52:52;5.20;66.70
831;DHT22;397;50.564;7.272;2023-02-28T16:55:22;5.20;66.80
831;DHT22;397;50.564;7.272;2023-02-28T16:57:58;5.10;67.40
831;DHT22;397;50.564;7.272;2023-02-28T17:00:29;5.10;67.40
831;DHT22;397;50.564;7.272;2023-02-28T17:02:57;4.90;68.60
831;DHT22;397;50.564;7.272;2023-02-28T17:05:29;4.90;70.30
831;DHT22;397;50.564;7.272;2023-02-28T17:07:57;5.00;68.30
831;DHT22;397;50.564;7.272;2023-02-28T17:10:26;4.90;69.40
831;DHT22;397;50.564;7.272;2023-02-28T17:12:54;4.90;68.60
831;DHT22;397;50.564;7.272;2023-02-28T17:15:21;4.90;70.10
831;DHT22;397;50.564;7.272;2023-02-28T17:17:49;4.90;69.60
831;DHT22;397;50.564;7.272;2023-02-28T17:20:21;4.80;69.00
831;DHT22;397;50.564;7.272;2023-02-28T17:22:50;4.80;69.80
831;DHT22;397;50.564;7.272;2023-02-28T17:25:18;4.60;70.80
831;DHT22;397;50.564;7.272;2023-02-28T17:27:46;4.60;70.90
831;DHT22;397;50.564;7.272;2023-02-28T17:30:25;4.50;74.20
831;DHT22;397;50.564;7.272;2023-02-28T17:32:56;4.40;75.50
831;DHT22;397;50.564;7.272;2023-02-28T17:35:24;4.30;76.00
831;DHT22;397;50.564;7.272;2023-02-28T17:37:53;4.10;77.90
831;DHT22;397;50.564;7.272;2023-02-28T17:40:22;4.00;81.90
831;DHT22;397;50.564;7.272;2023-02-28T17:42:50;3.90;82.70
831;DHT22;397;50.564;7.272;2023-02-28T17:45:23;4.00;86.40
831;DHT22;397;50.564;7.272;2023-02-28T17:47:50;3.90;89.30
831;DHT22;397;50.564;7.272;2023-02-28T17:50:20;3.90;90.20
831;DHT22;397;50.564;7.272;2023-02-28T17:52:49;3.70;91.80
831;DHT22;397;50.564;7.272;2023-02-28T17:55:16;3.50;93.30
831;DHT22;397;50.564;7.272;2023-02-28T17:57:45;3.40;93.80
831;DHT22;397;50.564;7.272;2023-02-28T18:00:15;3.30;96.50
831;DHT22;397;50.564;7.272;2023-02-28T18:02:44;3.20;96.80
831;DHT22;397;50.564;7.272;2023-02-28T18:05:11;3.20;97.80
831;DHT22;397;50.564;7.272;2023-02-28T18:07:39;3.20;97.90
831;DHT22;397;50.564;7.272;2023-02-28T18:10:20;3.10;98.60
831;DHT22;397;50.564;7.272;2023-02-28T18:12:49;3.10;99.90
831;DHT22;397;50.564;7.272;2023-02-28T18:15:19;3.00;99.90
831;DHT22;397;50.564;7.272;2023-02-28T18:17:47;2.90;99.90
831;DHT22;397;50.564;7.272;2023-02-28T18:20:15;2.60;99.90
831;DHT22;397;50.564;7.272;2023-02-28T18:22:43;2.60;99.90
831;DHT22;397;50.564;7.272;2023-02-28T18:25:12;2.60;99.90
831;DHT22;397;50.564;7.272;2023-02-28T18:27:44;2.60;99.90
831;DHT22;397;50.564;7.272;2023-02-28T18:30:27;2.40;99.90
831;DHT22;397;50.564;7.272;2023-02-28T18:32:58;2.40;99.90
831;DHT22;397;50.564;7.272;2023-02-28T18:35:26;2.30;99.90
831;DHT22;397;50.564;7.272;2023-02-28T18:38:15;2.20;99.90
831;DHT22;397;50.564;7.272;2023-02-28T18:40:55;2.10;99.90
831;DHT22;397;50.564;7.272;2023-02-28T18:43:26;2.10;99.90
831;DHT22;397;50.564;7.272;2023-02-28T18:45:53;2.00;99.90
831;DHT22;397;50.564;7.272;2023-02-28T18:48:21;2.00;99.90
831;DHT22;397;50.564;7.272;2023-02-28T18:50:51;1.80;99.90
831;DHT22;397;50.564;7.272;2023-02-28T18:53:19;1.80;99.90
831;DHT22;397;50.564;7.272;2023-02-28T18:56:06;2.00;99.90
831;DHT22;397;50.564;7.272;2023-02-28T18:58:34;2.00;99.90
831;DHT22;397;50.564;7.272;2023-02-28T19:01:06;1.90;99.90
831;DHT22;397;50.564;7.272;2023-02-28T19:03:32;1.90;99.90
831;DHT22;397;50.564;7.272;2023-02-28T19:06:00;1.90;99.90
831;DHT22;397;50.564;7.272;2023-02-28T19:08:27;1.90;99.90
831;DHT22;397;50.564;7.272;2023-02-28T19:10:55;2.00;99.90
831;DHT22;397;50.564;7.272;2023-02-28T19:13:22;2.00;99.90
831;DHT22;397;50.564;7.272;2023-02-28T19:15:50;1.80;99.90